sensor_id;sensor_type;location;lat;lon;timestamp;P1;durP1;ratioP1;P2;durP2;ratioP2
15063;SDS011;7631;52.088;5.088;2022-11-09T00:01:16;4.30;;;1.90;;
15063;SDS011;7631;52.088;5.088;2022-11-09T00:03:41;3.03;;;1.60;;
15063;SDS011;7631;52.088;5.088;2022-11-09T00:06:06;3.70;;;1.90;;
15063;SDS011;7631;52.088;5.088;2022-11-09T00:08:32;4.13;;;1.97;;
15063;SDS011;7631;52.088;5.088;2022-11-09T00:11:03;2.73;;;1.77;;
15063;SDS011;7631;52.088;5.088;2022-11-09T00:13:29;2.50;;;1.60;;
15063;SDS011;7631;52.088;5.088;2022-11-09T00:15:58;4.63;;;2.03;;
15063;SDS011;7631;52.088;5.088;2022-11-09T00:18:23;3.53;;;1.90;;
15063;SDS011;7631;52.088;5.088;2022-11-09T00:20:48;2.23;;;1.50;;
15063;SDS011;7631;52.088;5.088;2022-11-09T00:23:16;2.87;;;1.63;;
15063;SDS011;7631;52.088;5.088;2022-11-09T00:25:41;3.37;;;1.60;;
15063;SDS011;7631;52.088;5.088;2022-11-09T00:28:07;4.07;;;2.00;;
15063;SDS011;7631;52.088;5.088;2022-11-09T00:30:32;2.67;;;1.47;;
15063;SDS011;7631;52.088;5.088;2022-11-09T00:32:57;5.10;;;1.93;;
15063;SDS011;7631;52.088;5.088;2022-11-09T00:35:23;3.17;;;1.50;;
15063;SDS011;7631;52.088;5.088;2022-11-09T00:37:48;3.67;;;1.70;;
15063;SDS011;7631;52.088;5.088;2022-11-09T00:40:13;3.00;;;1.80;;
15063;SDS011;7631;52.088;5.088;2022-11-09T00:42:38;2.77;;;1.60;;
15063;SDS011;7631;52.088;5.088;2022-11-09T00:45:04;2.43;;;1.70;;
15063;SDS011;7631;52.088;5.088;2022-11-09T00:47:29;2.50;;;1.70;;
15063;SDS011;7631;52.088;5.088;2022-11-09T00:49:54;2.43;;;1.53;;
15063;SDS011;7631;52.088;5.088;2022-11-09T00:52:20;4.33;;;1.70;;
15063;SDS011;7631;52.088;5.088;2022-11-09T00:54:45;3.57;;;1.73;;
15063;SDS011;7631;52.088;5.088;2022-11-09T00:57:11;3.67;;;1.63;;
15063;SDS011;7631;52.088;5.088;2022-11-09T00:59:37;5.27;;;1.90;;
15063;SDS011;7631;52.088;5.088;2022-11-09T01:02:02;3.23;;;1.77;;
15063;SDS011;7631;52.088;5.088;2022-11-09T01:04:27;2.23;;;1.30;;
15063;SDS011;7631;52.088;5.088;2022-11-09T01:06:53;4.00;;;1.50;;
15063;SDS011;7631;52.088;5.088;2022-11-09T01:09:18;2.80;;;1.70;;
15063;SDS011;7631;52.088;5.088;2022-11-09T01:11:43;3.43;;;1.40;;
15063;SDS011;7631;52.088;5.088;2022-11-09T01:14:08;2.63;;;1.37;;
15063;SDS011;7631;52.088;5.088;2022-11-09T01:16:34;2.57;;;1.53;;
15063;SDS011;7631;52.088;5.088;2022-11-09T01:18:59;2.03;;;1.30;;
15063;SDS011;7631;52.088;5.088;2022-11-09T01:21:25;2.07;;;1.40;;
15063;SDS011;7631;52.088;5.088;2022-11-09T01:23:50;2.77;;;1.43;;
15063;SDS011;7631;52.088;5.088;2022-11-09T01:26:15;3.47;;;1.47;;
15063;SDS011;7631;52.088;5.088;2022-11-09T01:28:41;3.37;;;1.63;;
15063;SDS011;7631;52.088;5.088;2022-11-09T01:31:07;4.53;;;1.57;;
15063;SDS011;7631;52.088;5.088;2022-11-09T01:33:34;2.03;;;1.30;;
15063;SDS011;7631;52.088;5.088;2022-11-09T01:36:10;3.23;;;1.37;;
15063;SDS011;7631;52.088;5.088;2022-11-09T01:38:36;4.23;;;1.70;;
15063;SDS011;7631;52.088;5.088;2022-11-09T01:41:01;2.90;;;1.53;;
15063;SDS011;7631;52.088;5.088;2022-11-09T01:43:27;2.27;;;1.30;;
15063;SDS011;7631;52.088;5.088;2022-11-09T01:46:00;3.83;;;1.40;;
15063;SDS011;7631;52.088;5.088;2022-11-09T01:48:32;2.03;;;1.23;;
15063;SDS011;7631;52.088;5.088;2022-11-09T01:51:00;2.53;;;1.57;;
15063;SDS011;7631;52.088;5.088;2022-11-09T01:53:28;5.20;;;1.60;;
15063;SDS011;7631;52.088;5.088;2022-11-09T01:55:55;2.37;;;1.30;;
15063;SDS011;7631;52.088;5.088;2022-11-09T01:58:22;2.60;;;1.23;;
15063;SDS011;7631;52.088;5.088;2022-11-09T02:00:49;2.33;;;1.30;;
15063;SDS011;7631;52.088;5.088;2022-11-09T02:03:31;3.47;;;1.57;;
15063;SDS011;7631;52.088;5.088;2022-11-09T02:05:58;2.13;;;1.20;;
15063;SDS011;7631;52.088;5.088;2022-11-09T02:08:25;3.00;;;1.50;;
15063;SDS011;7631;52.088;5.088;2022-11-09T02:11:04;2.43;;;1.30;;
15063;SDS011;7631;52.088;5.088;2022-11-09T02:13:31;2.70;;;1.40;;
15063;SDS011;7631;52.088;5.088;2022-11-09T02:15:57;4.13;;;1.77;;
15063;SDS011;7631;52.088;5.088;2022-11-09T02:18:22;4.60;;;1.70;;
15063;SDS011;7631;52.088;5.088;2022-11-09T02:20:48;4.33;;;1.73;;
15063;SDS011;7631;52.088;5.088;2022-11-09T02:23:14;3.37;;;1.30;;
15063;SDS011;7631;52.088;5.088;2022-11-09T02:25:39;3.30;;;1.30;;
15063;SDS011;7631;52.088;5.088;2022-11-09T02:28:05;3.33;;;1.37;;
15063;SDS011;7631;52.088;5.088;2022-11-09T02:30:31;3.80;;;1.40;;
15063;SDS011;7631;52.088;5.088;2022-11-09T02:32:57;2.80;;;1.20;;
15063;SDS011;7631;52.088;5.088;2022-11-09T02:35:22;3.13;;;1.10;;
15063;SDS011;7631;52.088;5.088;2022-11-09T02:37:48;2.90;;;1.10;;
15063;SDS011;7631;52.088;5.088;2022-11-09T02:40:15;3.53;;;1.40;;
15063;SDS011;7631;52.088;5.088;2022-11-09T02:42:41;2.97;;;1.23;;
15063;SDS011;7631;52.088;5.088;2022-11-09T02:45:07;3.77;;;1.30;;
15063;SDS011;7631;52.088;5.088;2022-11-09T02:47:32;2.00;;;1.30;;
15063;SDS011;7631;52.088;5.088;2022-11-09T02:49:57;4.27;;;1.67;;
15063;SDS011;7631;52.088;5.088;2022-11-09T02:52:23;2.13;;;1.03;;
15063;SDS011;7631;52.088;5.088;2022-11-09T02:54:48;2.50;;;1.10;;
15063;SDS011;7631;52.088;5.088;2022-11-09T02:57:13;3.17;;;1.47;;
15063;SDS011;7631;52.088;5.088;2022-11-09T02:59:39;3.00;;;1.40;;
15063;SDS011;7631;52.088;5.088;2022-11-09T03:02:04;2.70;;;1.43;;
15063;SDS011;7631;52.088;5.088;2022-11-09T03:04:29;2.87;;;1.23;;
15063;SDS011;7631;52.088;5.088;2022-11-09T03:06:54;2.73;;;1.17;;
15063;SDS011;7631;52.088;5.088;2022-11-09T03:09:19;2.93;;;1.20;;
15063;SDS011;7631;52.088;5.088;2022-11-09T03:11:45;2.87;;;1.20;;
15063;SDS011;7631;52.088;5.088;2022-11-09T03:14:10;2.87;;;1.33;;
15063;SDS011;7631;52.088;5.088;2022-11-09T03:16:36;2.30;;;1.40;;
15063;SDS011;7631;52.088;5.088;2022-11-09T03:19:01;2.80;;;1.20;;
15063;SDS011;7631;52.088;5.088;2022-11-09T03:21:27;2.67;;;1.30;;
15063;SDS011;7631;52.088;5.088;2022-11-09T03:23:52;2.77;;;1.20;;
15063;SDS011;7631;52.088;5.088;2022-11-09T03:26:18;4.13;;;1.30;;
15063;SDS011;7631;52.088;5.088;2022-11-09T03:28:44;3.50;;;1.50;;
15063;SDS011;7631;52.088;5.088;2022-11-09T03:31:09;2.53;;;1.20;;
15063;SDS011;7631;52.088;5.088;2022-11-09T03:33:34;3.27;;;1.10;;
15063;SDS011;7631;52.088;5.088;2022-11-09T03:35:59;3.17;;;1.50;;
15063;SDS011;7631;52.088;5.088;2022-11-09T03:38:25;1.67;;;1.20;;
15063;SDS011;7631;52.088;5.088;2022-11-09T03:40:50;3.17;;;1.47;;
15063;SDS011;7631;52.088;5.088;2022-11-09T03:43:15;3.53;;;1.20;;
15063;SDS011;7631;52.088;5.088;2022-11-09T03:45:40;2.87;;;1.40;;
15063;SDS011;7631;52.088;5.088;2022-11-09T03:48:06;3.13;;;1.40;;
15063;SDS011;7631;52.088;5.088;2022-11-09T03:50:32;3.10;;;1.50;;
15063;SDS011;7631;52.088;5.088;2022-11-09T03:52:57;1.53;;;1.07;;
15063;SDS011;7631;52.088;5.088;2022-11-09T03:55:23;2.40;;;1.13;;
15063;SDS011;7631;52.088;5.088;2022-11-09T03:57:48;3.23;;;1.20;;
15063;SDS011;7631;52.088;5.088;2022-11-09T04:00:14;3.10;;;1.33;;
15063;SDS011;7631;52.088;5.088;2022-11-09T04:02:40;3.57;;;1.20;;
15063;SDS011;7631;52.088;5.088;2022-11-09T04:05:05;3.30;;;1.50;;
15063;SDS011;7631;52.088;5.088;2022-11-09T04:07:31;1.53;;;0.83;;
15063;SDS011;7631;52.088;5.088;2022-11-09T04:09:56;1.83;;;1.03;;
15063;SDS011;7631;52.088;5.088;2022-11-09T04:12:21;1.93;;;1.23;;
15063;SDS011;7631;52.088;5.088;2022-11-09T04:14:47;2.60;;;1.37;;
15063;SDS011;7631;52.088;5.088;2022-11-09T04:17:12;1.90;;;1.00;;
15063;SDS011;7631;52.088;5.088;2022-11-09T04:19:37;4.63;;;1.50;;
15063;SDS011;7631;52.088;5.088;2022-11-09T04:22:03;3.33;;;1.53;;
15063;SDS011;7631;52.088;5.088;2022-11-09T04:24:29;3.67;;;1.20;;
15063;SDS011;7631;52.088;5.088;2022-11-09T04:26:54;3.10;;;1.47;;
15063;SDS011;7631;52.088;5.088;2022-11-09T04:29:19;1.90;;;1.20;;
15063;SDS011;7631;52.088;5.088;2022-11-09T04:31:46;3.27;;;1.50;;
15063;SDS011;7631;52.088;5.088;2022-11-09T04:34:12;2.03;;;1.27;;
15063;SDS011;7631;52.088;5.088;2022-11-09T04:36:37;2.73;;;1.37;;
15063;SDS011;7631;52.088;5.088;2022-11-09T04:39:02;3.00;;;1.27;;
15063;SDS011;7631;52.088;5.088;2022-11-09T04:41:27;2.80;;;1.20;;
15063;SDS011;7631;52.088;5.088;2022-11-09T04:43:52;3.27;;;1.40;;
15063;SDS011;7631;52.088;5.088;2022-11-09T04:46:18;3.23;;;1.47;;
15063;SDS011;7631;52.088;5.088;2022-11-09T04:48:43;3.87;;;1.67;;
15063;SDS011;7631;52.088;5.088;2022-11-09T04:51:08;1.93;;;1.00;;
15063;SDS011;7631;52.088;5.088;2022-11-09T04:53:34;2.40;;;1.20;;
15063;SDS011;7631;52.088;5.088;2022-11-09T04:56:00;1.83;;;1.10;;
15063;SDS011;7631;52.088;5.088;2022-11-09T04:58:25;2.30;;;1.10;;
15063;SDS011;7631;52.088;5.088;2022-11-09T05:00:51;2.10;;;1.17;;
15063;SDS011;7631;52.088;5.088;2022-11-09T05:03:16;3.77;;;1.37;;
15063;SDS011;7631;52.088;5.088;2022-11-09T05:05:41;1.87;;;1.20;;
15063;SDS011;7631;52.088;5.088;2022-11-09T05:08:07;2.53;;;1.23;;
15063;SDS011;7631;52.088;5.088;2022-11-09T05:10:32;3.30;;;1.30;;
15063;SDS011;7631;52.088;5.088;2022-11-09T05:12:58;1.83;;;0.87;;
15063;SDS011;7631;52.088;5.088;2022-11-09T05:15:23;2.03;;;0.97;;
15063;SDS011;7631;52.088;5.088;2022-11-09T05:17:49;4.67;;;1.43;;
15063;SDS011;7631;52.088;5.088;2022-11-09T05:20:14;2.50;;;1.03;;
15063;SDS011;7631;52.088;5.088;2022-11-09T05:22:39;2.87;;;1.17;;
15063;SDS011;7631;52.088;5.088;2022-11-09T05:25:40;3.17;;;1.23;;
15063;SDS011;7631;52.088;5.088;2022-11-09T05:28:05;2.87;;;1.10;;
15063;SDS011;7631;52.088;5.088;2022-11-09T05:30:30;2.20;;;1.03;;
15063;SDS011;7631;52.088;5.088;2022-11-09T05:32:55;2.90;;;1.20;;
15063;SDS011;7631;52.088;5.088;2022-11-09T05:35:21;2.63;;;1.03;;
15063;SDS011;7631;52.088;5.088;2022-11-09T05:37:48;3.67;;;1.30;;
15063;SDS011;7631;52.088;5.088;2022-11-09T05:40:14;3.03;;;1.23;;
15063;SDS011;7631;52.088;5.088;2022-11-09T05:42:40;1.80;;;1.03;;
15063;SDS011;7631;52.088;5.088;2022-11-09T05:45:06;2.67;;;1.17;;
15063;SDS011;7631;52.088;5.088;2022-11-09T05:47:35;5.23;;;1.40;;
15063;SDS011;7631;52.088;5.088;2022-11-09T05:50:00;3.73;;;1.30;;
15063;SDS011;7631;52.088;5.088;2022-11-09T05:52:25;2.13;;;1.00;;
15063;SDS011;7631;52.088;5.088;2022-11-09T05:54:51;2.97;;;1.10;;
15063;SDS011;7631;52.088;5.088;2022-11-09T05:57:16;3.50;;;1.20;;
15063;SDS011;7631;52.088;5.088;2022-11-09T05:59:41;3.10;;;1.13;;
15063;SDS011;7631;52.088;5.088;2022-11-09T06:02:06;2.23;;;1.23;;
15063;SDS011;7631;52.088;5.088;2022-11-09T06:04:31;2.13;;;0.90;;
15063;SDS011;7631;52.088;5.088;2022-11-09T06:06:56;2.53;;;1.13;;
15063;SDS011;7631;52.088;5.088;2022-11-09T06:09:22;1.80;;;1.00;;
15063;SDS011;7631;52.088;5.088;2022-11-09T06:11:48;2.50;;;1.20;;
15063;SDS011;7631;52.088;5.088;2022-11-09T06:14:13;2.33;;;1.10;;
15063;SDS011;7631;52.088;5.088;2022-11-09T06:16:39;2.70;;;1.30;;
15063;SDS011;7631;52.088;5.088;2022-11-09T06:19:04;4.23;;;1.37;;
15063;SDS011;7631;52.088;5.088;2022-11-09T06:21:29;2.80;;;1.23;;
15063;SDS011;7631;52.088;5.088;2022-11-09T06:23:54;2.70;;;1.07;;
15063;SDS011;7631;52.088;5.088;2022-11-09T06:26:19;2.47;;;1.33;;
15063;SDS011;7631;52.088;5.088;2022-11-09T06:28:45;3.53;;;1.33;;
15063;SDS011;7631;52.088;5.088;2022-11-09T06:31:13;2.87;;;1.47;;
15063;SDS011;7631;52.088;5.088;2022-11-09T06:33:39;2.70;;;1.00;;
15063;SDS011;7631;52.088;5.088;2022-11-09T06:36:04;4.83;;;1.37;;
15063;SDS011;7631;52.088;5.088;2022-11-09T06:38:30;3.47;;;1.37;;
15063;SDS011;7631;52.088;5.088;2022-11-09T06:40:57;2.73;;;1.40;;
15063;SDS011;7631;52.088;5.088;2022-11-09T06:43:23;3.17;;;1.10;;
15063;SDS011;7631;52.088;5.088;2022-11-09T06:45:48;3.60;;;1.00;;
15063;SDS011;7631;52.088;5.088;2022-11-09T06:48:14;2.93;;;1.30;;
15063;SDS011;7631;52.088;5.088;2022-11-09T06:50:39;4.30;;;1.40;;
15063;SDS011;7631;52.088;5.088;2022-11-09T06:53:06;2.70;;;1.00;;
15063;SDS011;7631;52.088;5.088;2022-11-09T06:55:32;2.20;;;1.07;;
15063;SDS011;7631;52.088;5.088;2022-11-09T06:57:57;3.00;;;1.10;;
15063;SDS011;7631;52.088;5.088;2022-11-09T07:00:23;1.70;;;0.80;;
15063;SDS011;7631;52.088;5.088;2022-11-09T07:02:50;3.40;;;1.27;;
15063;SDS011;7631;52.088;5.088;2022-11-09T07:05:15;3.30;;;1.20;;
15063;SDS011;7631;52.088;5.088;2022-11-09T07:07:41;3.77;;;1.43;;
15063;SDS011;7631;52.088;5.088;2022-11-09T07:10:06;6.03;;;1.47;;
15063;SDS011;7631;52.088;5.088;2022-11-09T07:12:31;3.67;;;1.13;;
15063;SDS011;7631;52.088;5.088;2022-11-09T07:14:58;4.13;;;1.77;;
15063;SDS011;7631;52.088;5.088;2022-11-09T07:17:23;4.27;;;1.43;;
15063;SDS011;7631;52.088;5.088;2022-11-09T07:19:48;3.47;;;1.27;;
15063;SDS011;7631;52.088;5.088;2022-11-09T07:22:14;3.27;;;1.30;;
15063;SDS011;7631;52.088;5.088;2022-11-09T07:24:39;2.03;;;1.00;;
15063;SDS011;7631;52.088;5.088;2022-11-09T07:27:04;2.97;;;1.30;;
15063;SDS011;7631;52.088;5.088;2022-11-09T07:29:29;3.43;;;1.47;;
15063;SDS011;7631;52.088;5.088;2022-11-09T07:31:55;3.50;;;1.10;;
15063;SDS011;7631;52.088;5.088;2022-11-09T07:34:20;2.53;;;1.27;;
15063;SDS011;7631;52.088;5.088;2022-11-09T07:36:45;2.83;;;1.20;;
15063;SDS011;7631;52.088;5.088;2022-11-09T07:39:10;2.90;;;1.47;;
15063;SDS011;7631;52.088;5.088;2022-11-09T07:41:35;2.67;;;1.30;;
15063;SDS011;7631;52.088;5.088;2022-11-09T07:44:01;4.13;;;1.60;;
15063;SDS011;7631;52.088;5.088;2022-11-09T07:46:26;1.73;;;1.03;;
15063;SDS011;7631;52.088;5.088;2022-11-09T07:48:51;4.63;;;1.27;;
15063;SDS011;7631;52.088;5.088;2022-11-09T07:51:16;3.43;;;1.47;;
15063;SDS011;7631;52.088;5.088;2022-11-09T07:53:42;2.80;;;1.50;;
15063;SDS011;7631;52.088;5.088;2022-11-09T07:56:07;4.03;;;1.20;;
15063;SDS011;7631;52.088;5.088;2022-11-09T07:58:32;3.60;;;1.50;;
15063;SDS011;7631;52.088;5.088;2022-11-09T08:00:59;2.67;;;1.10;;
15063;SDS011;7631;52.088;5.088;2022-11-09T08:03:24;3.73;;;1.30;;
15063;SDS011;7631;52.088;5.088;2022-11-09T08:05:50;3.07;;;1.20;;
15063;SDS011;7631;52.088;5.088;2022-11-09T08:08:15;4.70;;;2.30;;
15063;SDS011;7631;52.088;5.088;2022-11-09T08:10:41;4.43;;;1.37;;
15063;SDS011;7631;52.088;5.088;2022-11-09T08:13:08;4.37;;;1.67;;
15063;SDS011;7631;52.088;5.088;2022-11-09T08:15:34;2.80;;;1.17;;
15063;SDS011;7631;52.088;5.088;2022-11-09T08:18:01;1.67;;;1.07;;
15063;SDS011;7631;52.088;5.088;2022-11-09T08:20:27;3.30;;;1.20;;
15063;SDS011;7631;52.088;5.088;2022-11-09T08:22:53;4.13;;;1.40;;
15063;SDS011;7631;52.088;5.088;2022-11-09T08:25:18;4.67;;;1.30;;
15063;SDS011;7631;52.088;5.088;2022-11-09T08:27:43;4.27;;;1.53;;
15063;SDS011;7631;52.088;5.088;2022-11-09T08:30:12;3.03;;;1.37;;
15063;SDS011;7631;52.088;5.088;2022-11-09T08:32:38;3.03;;;1.50;;
15063;SDS011;7631;52.088;5.088;2022-11-09T08:35:04;4.20;;;1.33;;
15063;SDS011;7631;52.088;5.088;2022-11-09T08:37:29;4.43;;;1.70;;
15063;SDS011;7631;52.088;5.088;2022-11-09T08:39:54;3.23;;;1.60;;
15063;SDS011;7631;52.088;5.088;2022-11-09T08:42:20;4.23;;;2.03;;
15063;SDS011;7631;52.088;5.088;2022-11-09T08:44:45;4.40;;;1.73;;
15063;SDS011;7631;52.088;5.088;2022-11-09T08:47:10;3.70;;;1.47;;
15063;SDS011;7631;52.088;5.088;2022-11-09T08:49:35;4.80;;;1.90;;
15063;SDS011;7631;52.088;5.088;2022-11-09T08:52:01;3.13;;;1.27;;
15063;SDS011;7631;52.088;5.088;2022-11-09T08:54:26;4.63;;;1.73;;
15063;SDS011;7631;52.088;5.088;2022-11-09T08:56:53;5.30;;;2.00;;
15063;SDS011;7631;52.088;5.088;2022-11-09T08:59:19;3.00;;;1.33;;
15063;SDS011;7631;52.088;5.088;2022-11-09T09:01:44;4.70;;;1.70;;
15063;SDS011;7631;52.088;5.088;2022-11-09T09:04:09;6.43;;;1.60;;
15063;SDS011;7631;52.088;5.088;2022-11-09T09:06:34;4.03;;;1.60;;
15063;SDS011;7631;52.088;5.088;2022-11-09T09:08:59;2.87;;;1.40;;
15063;SDS011;7631;52.088;5.088;2022-11-09T09:11:25;6.87;;;2.10;;
15063;SDS011;7631;52.088;5.088;2022-11-09T09:13:50;4.63;;;1.70;;
15063;SDS011;7631;52.088;5.088;2022-11-09T09:16:15;5.50;;;1.80;;
15063;SDS011;7631;52.088;5.088;2022-11-09T09:18:40;2.40;;;1.50;;
15063;SDS011;7631;52.088;5.088;2022-11-09T09:21:06;3.93;;;1.63;;
15063;SDS011;7631;52.088;5.088;2022-11-09T09:23:31;5.97;;;1.80;;
15063;SDS011;7631;52.088;5.088;2022-11-09T09:25:57;4.30;;;1.60;;
15063;SDS011;7631;52.088;5.088;2022-11-09T09:28:22;5.03;;;1.70;;
15063;SDS011;7631;52.088;5.088;2022-11-09T09:30:47;4.93;;;1.73;;
15063;SDS011;7631;52.088;5.088;2022-11-09T09:33:12;3.07;;;1.50;;
15063;SDS011;7631;52.088;5.088;2022-11-09T09:35:38;5.10;;;1.83;;
15063;SDS011;7631;52.088;5.088;2022-11-09T09:38:03;4.83;;;1.80;;
15063;SDS011;7631;52.088;5.088;2022-11-09T09:40:35;4.87;;;1.80;;
15063;SDS011;7631;52.088;5.088;2022-11-09T09:43:02;3.80;;;1.73;;
15063;SDS011;7631;52.088;5.088;2022-11-09T09:45:29;5.73;;;1.90;;
15063;SDS011;7631;52.088;5.088;2022-11-09T09:48:01;4.97;;;2.00;;
15063;SDS011;7631;52.088;5.088;2022-11-09T09:50:28;3.93;;;1.60;;
15063;SDS011;7631;52.088;5.088;2022-11-09T09:52:59;3.67;;;1.83;;
15063;SDS011;7631;52.088;5.088;2022-11-09T09:55:38;4.53;;;1.73;;
15063;SDS011;7631;52.088;5.088;2022-11-09T09:58:11;5.40;;;1.93;;
15063;SDS011;7631;52.088;5.088;2022-11-09T10:00:36;5.43;;;2.33;;
15063;SDS011;7631;52.088;5.088;2022-11-09T10:03:03;5.80;;;2.33;;
15063;SDS011;7631;52.088;5.088;2022-11-09T10:05:42;4.63;;;1.90;;
15063;SDS011;7631;52.088;5.088;2022-11-09T10:08:12;6.03;;;2.10;;
15063;SDS011;7631;52.088;5.088;2022-11-09T10:10:53;5.33;;;2.10;;
15063;SDS011;7631;52.088;5.088;2022-11-09T10:13:30;4.93;;;1.80;;
15063;SDS011;7631;52.088;5.088;2022-11-09T10:18:36;3.63;;;1.60;;
15063;SDS011;7631;52.088;5.088;2022-11-09T10:23:37;3.93;;;1.77;;
15063;SDS011;7631;52.088;5.088;2022-11-09T10:26:16;6.30;;;1.90;;
15063;SDS011;7631;52.088;5.088;2022-11-09T10:28:42;6.87;;;1.80;;
15063;SDS011;7631;52.088;5.088;2022-11-09T10:31:18;3.80;;;1.60;;
15063;SDS011;7631;52.088;5.088;2022-11-09T10:33:48;5.30;;;2.10;;
15063;SDS011;7631;52.088;5.088;2022-11-09T10:36:17;5.57;;;2.10;;
15063;SDS011;7631;52.088;5.088;2022-11-09T10:38:46;6.10;;;1.97;;
15063;SDS011;7631;52.088;5.088;2022-11-09T10:41:23;4.63;;;1.80;;
15063;SDS011;7631;52.088;5.088;2022-11-09T10:43:50;5.90;;;1.77;;
15063;SDS011;7631;52.088;5.088;2022-11-09T10:46:15;3.50;;;1.70;;
15063;SDS011;7631;52.088;5.088;2022-11-09T10:48:41;4.37;;;2.20;;
15063;SDS011;7631;52.088;5.088;2022-11-09T10:51:32;2.60;;;1.80;;
15063;SDS011;7631;52.088;5.088;2022-11-09T10:54:12;5.57;;;2.00;;
15063;SDS011;7631;52.088;5.088;2022-11-09T10:56:42;3.43;;;1.83;;
15063;SDS011;7631;52.088;5.088;2022-11-09T11:01:51;4.57;;;2.23;;
15063;SDS011;7631;52.088;5.088;2022-11-09T11:04:21;5.53;;;2.10;;
15063;SDS011;7631;52.088;5.088;2022-11-09T11:06:47;4.27;;;2.00;;
15063;SDS011;7631;52.088;5.088;2022-11-09T11:09:13;5.13;;;2.13;;
15063;SDS011;7631;52.088;5.088;2022-11-09T11:11:39;3.67;;;1.90;;
15063;SDS011;7631;52.088;5.088;2022-11-09T11:16:33;3.50;;;1.90;;
15063;SDS011;7631;52.088;5.088;2022-11-09T11:19:00;4.77;;;1.93;;
15063;SDS011;7631;52.088;5.088;2022-11-09T11:21:26;5.80;;;2.07;;
15063;SDS011;7631;52.088;5.088;2022-11-09T11:26:58;4.60;;;2.07;;
15063;SDS011;7631;52.088;5.088;2022-11-09T11:31:58;5.27;;;2.20;;
15063;SDS011;7631;52.088;5.088;2022-11-09T11:34:23;3.87;;;1.90;;
15063;SDS011;7631;52.088;5.088;2022-11-09T11:37:04;5.97;;;2.00;;
15063;SDS011;7631;52.088;5.088;2022-11-09T11:39:36;4.20;;;2.30;;
15063;SDS011;7631;52.088;5.088;2022-11-09T11:42:08;4.70;;;2.10;;
15063;SDS011;7631;52.088;5.088;2022-11-09T11:44:46;4.17;;;1.83;;
15063;SDS011;7631;52.088;5.088;2022-11-09T11:47:17;5.33;;;2.17;;
15063;SDS011;7631;52.088;5.088;2022-11-09T12:00:40;5.77;;;1.97;;
15063;SDS011;7631;52.088;5.088;2022-11-09T12:05:49;3.90;;;1.87;;
15063;SDS011;7631;52.088;5.088;2022-11-09T12:08:20;3.70;;;1.50;;
15063;SDS011;7631;52.088;5.088;2022-11-09T12:10:57;3.50;;;1.57;;
15063;SDS011;7631;52.088;5.088;2022-11-09T12:16:37;3.40;;;1.63;;
15063;SDS011;7631;52.088;5.088;2022-11-09T12:18:57;2.37;;;1.60;;
15063;SDS011;7631;52.088;5.088;2022-11-09T12:21:37;2.53;;;1.60;;
15063;SDS011;7631;52.088;5.088;2022-11-09T12:29:20;3.93;;;1.43;;
15063;SDS011;7631;52.088;5.088;2022-11-09T12:36:53;2.57;;;1.33;;
15063;SDS011;7631;52.088;5.088;2022-11-09T12:41:47;3.47;;;1.33;;
15063;SDS011;7631;52.088;5.088;2022-11-09T12:44:21;3.03;;;1.60;;
15063;SDS011;7631;52.088;5.088;2022-11-09T12:46:49;3.20;;;1.50;;
15063;SDS011;7631;52.088;5.088;2022-11-09T12:49:26;3.03;;;1.30;;
15063;SDS011;7631;52.088;5.088;2022-11-09T12:51:53;4.53;;;1.90;;
15063;SDS011;7631;52.088;5.088;2022-11-09T12:54:19;2.93;;;1.47;;
15063;SDS011;7631;52.088;5.088;2022-11-09T12:56:53;3.33;;;1.30;;
15063;SDS011;7631;52.088;5.088;2022-11-09T13:00:04;3.80;;;1.83;;
15063;SDS011;7631;52.088;5.088;2022-11-09T13:02:04;4.37;;;1.60;;
15063;SDS011;7631;52.088;5.088;2022-11-09T13:04:30;2.93;;;1.60;;
15063;SDS011;7631;52.088;5.088;2022-11-09T13:09:27;4.03;;;1.70;;
15063;SDS011;7631;52.088;5.088;2022-11-09T13:11:52;3.87;;;1.70;;
15063;SDS011;7631;52.088;5.088;2022-11-09T13:16:52;2.63;;;1.40;;
15063;SDS011;7631;52.088;5.088;2022-11-09T13:20:02;4.13;;;1.60;;
15063;SDS011;7631;52.088;5.088;2022-11-09T13:24:56;2.50;;;1.13;;
15063;SDS011;7631;52.088;5.088;2022-11-09T13:27:39;2.97;;;1.50;;
15063;SDS011;7631;52.088;5.088;2022-11-09T13:38:03;4.80;;;1.30;;
15063;SDS011;7631;52.088;5.088;2022-11-09T13:40:38;3.83;;;1.50;;
15063;SDS011;7631;52.088;5.088;2022-11-09T13:47:56;3.87;;;1.43;;
15063;SDS011;7631;52.088;5.088;2022-11-09T13:50:25;2.23;;;1.47;;
15063;SDS011;7631;52.088;5.088;2022-11-09T13:52:52;3.17;;;1.03;;
15063;SDS011;7631;52.088;5.088;2022-11-09T13:55:22;2.80;;;1.20;;
15063;SDS011;7631;52.088;5.088;2022-11-09T13:57:47;3.33;;;1.20;;
15063;SDS011;7631;52.088;5.088;2022-11-09T14:00:14;3.70;;;1.30;;
15063;SDS011;7631;52.088;5.088;2022-11-09T14:02:50;3.10;;;1.00;;
15063;SDS011;7631;52.088;5.088;2022-11-09T14:05:26;2.87;;;1.00;;
15063;SDS011;7631;52.088;5.088;2022-11-09T14:07:52;3.70;;;1.10;;
15063;SDS011;7631;52.088;5.088;2022-11-09T14:10:37;3.27;;;1.10;;
15063;SDS011;7631;52.088;5.088;2022-11-09T14:15:44;2.50;;;1.17;;
15063;SDS011;7631;52.088;5.088;2022-11-09T14:23:16;2.60;;;1.20;;
15063;SDS011;7631;52.088;5.088;2022-11-09T14:25:43;3.70;;;1.43;;
15063;SDS011;7631;52.088;5.088;2022-11-09T14:28:19;2.87;;;1.20;;
15063;SDS011;7631;52.088;5.088;2022-11-09T14:30:44;3.17;;;1.17;;
15063;SDS011;7631;52.088;5.088;2022-11-09T14:33:15;3.47;;;1.20;;
15063;SDS011;7631;52.088;5.088;2022-11-09T14:35:42;2.40;;;1.30;;
15063;SDS011;7631;52.088;5.088;2022-11-09T14:38:18;3.00;;;0.93;;
15063;SDS011;7631;52.088;5.088;2022-11-09T14:40:44;2.67;;;1.10;;
15063;SDS011;7631;52.088;5.088;2022-11-09T14:46:00;3.80;;;0.90;;
15063;SDS011;7631;52.088;5.088;2022-11-09T14:48:27;3.57;;;1.30;;
15063;SDS011;7631;52.088;5.088;2022-11-09T14:50:53;2.83;;;1.20;;
15063;SDS011;7631;52.088;5.088;2022-11-09T14:53:20;4.50;;;1.30;;
15063;SDS011;7631;52.088;5.088;2022-11-09T14:55:47;4.73;;;1.30;;
15063;SDS011;7631;52.088;5.088;2022-11-09T14:58:13;4.13;;;1.10;;
15063;SDS011;7631;52.088;5.088;2022-11-09T15:00:38;3.13;;;1.03;;
15063;SDS011;7631;52.088;5.088;2022-11-09T15:03:20;1.93;;;1.00;;
15063;SDS011;7631;52.088;5.088;2022-11-09T15:05:45;2.13;;;1.17;;
15063;SDS011;7631;52.088;5.088;2022-11-09T15:08:15;3.47;;;1.40;;
15063;SDS011;7631;52.088;5.088;2022-11-09T15:10:51;5.10;;;1.00;;
15063;SDS011;7631;52.088;5.088;2022-11-09T15:13:17;4.37;;;1.23;;
15063;SDS011;7631;52.088;5.088;2022-11-09T15:15:48;3.50;;;1.47;;
15063;SDS011;7631;52.088;5.088;2022-11-09T15:18:16;2.67;;;1.13;;
15063;SDS011;7631;52.088;5.088;2022-11-09T15:20:42;1.67;;;1.10;;
15063;SDS011;7631;52.088;5.088;2022-11-09T15:25:53;2.97;;;1.20;;
15063;SDS011;7631;52.088;5.088;2022-11-09T15:28:23;3.20;;;1.10;;
15063;SDS011;7631;52.088;5.088;2022-11-09T15:40:58;5.07;;;1.30;;
15063;SDS011;7631;52.088;5.088;2022-11-09T15:43:23;4.07;;;1.17;;
15063;SDS011;7631;52.088;5.088;2022-11-09T15:45:49;3.20;;;1.20;;
15063;SDS011;7631;52.088;5.088;2022-11-09T15:48:14;3.53;;;1.27;;
15063;SDS011;7631;52.088;5.088;2022-11-09T15:50:40;2.13;;;1.00;;
15063;SDS011;7631;52.088;5.088;2022-11-09T15:53:06;1.90;;;0.90;;
15063;SDS011;7631;52.088;5.088;2022-11-09T15:55:31;2.43;;;1.10;;
15063;SDS011;7631;52.088;5.088;2022-11-09T15:57:57;3.80;;;1.00;;
15063;SDS011;7631;52.088;5.088;2022-11-09T16:00:22;2.40;;;1.20;;
15063;SDS011;7631;52.088;5.088;2022-11-09T16:02:47;4.30;;;1.40;;
15063;SDS011;7631;52.088;5.088;2022-11-09T16:05:14;3.67;;;0.93;;
15063;SDS011;7631;52.088;5.088;2022-11-09T16:07:53;2.93;;;1.17;;
15063;SDS011;7631;52.088;5.088;2022-11-09T16:10:18;1.30;;;0.90;;
15063;SDS011;7631;52.088;5.088;2022-11-09T16:12:46;1.80;;;0.83;;
15063;SDS011;7631;52.088;5.088;2022-11-09T16:15:12;2.87;;;1.00;;
15063;SDS011;7631;52.088;5.088;2022-11-09T16:17:37;3.47;;;1.00;;
15063;SDS011;7631;52.088;5.088;2022-11-09T16:20:03;4.17;;;1.00;;
15063;SDS011;7631;52.088;5.088;2022-11-09T16:22:29;3.53;;;0.93;;
15063;SDS011;7631;52.088;5.088;2022-11-09T16:24:54;2.53;;;0.93;;
15063;SDS011;7631;52.088;5.088;2022-11-09T16:27:20;2.73;;;1.10;;
15063;SDS011;7631;52.088;5.088;2022-11-09T16:29:45;2.23;;;1.00;;